sensor_id;sensor_type;location;lat;lon;timestamp;pressure;altitude;pressure_sealevel;temperature;humidity
10014;BME280;45684;48.358;10.746;2024-03-29T01:36:48;94655.81;;;4.76;100.00
10014;BME280;45684;48.358;10.746;2024-03-29T06:02:28;94594.94;;;6.50;100.00
10014;BME280;45684;48.358;10.746;2024-03-29T06:27:23;94602.06;;;7.00;100.00
10014;BME280;45684;48.358;10.746;2024-03-29T06:30:48;94615.31;;;7.05;100.00
10014;BME280;45684;48.358;10.746;2024-03-29T06:34:20;94624.06;;;7.14;100.00
10014;BME280;45684;48.358;10.746;2024-03-29T06:37:50;94627.66;;;7.19;100.00
10014;BME280;45684;48.358;10.746;2024-03-29T07:06:45;94634.28;;;8.68;92.19
10014;BME280;45684;48.358;10.746;2024-03-29T07:11:05;94611.59;;;8.97;89.46
10014;BME280;45684;48.358;10.746;2024-03-29T09:43:33;94655.16;;;13.66;76.78
10014;BME280;45684;48.358;10.746;2024-03-29T11:22:17;94615.16;;;15.71;68.71
10014;BME280;45684;48.358;10.746;2024-03-29T11:29:28;94619.47;;;16.22;67.29
10014;BME280;45684;48.358;10.746;2024-03-29T11:35:53;94629.13;;;15.52;68.62
10014;BME280;45684;48.358;10.746;2024-03-29T11:39:34;94603.91;;;15.91;71.45
10014;BME280;45684;48.358;10.746;2024-03-29T11:42:37;94596.09;;;16.36;69.83
10014;BME280;45684;48.358;10.746;2024-03-29T11:45:57;94581.22;;;16.72;66.17
10014;BME280;45684;48.358;10.746;2024-03-29T11:49:17;94571.09;;;16.80;68.96
10014;BME280;45684;48.358;10.746;2024-03-29T11:52:25;94566.41;;;16.59;70.41
10014;BME280;45684;48.358;10.746;2024-03-29T11:55:25;94561.28;;;16.90;69.77
10014;BME280;45684;48.358;10.746;2024-03-29T11:58:43;94547.94;;;17.06;67.74
10014;BME280;45684;48.358;10.746;2024-03-29T12:01:29;94552.13;;;17.32;67.93
10014;BME280;45684;48.358;10.746;2024-03-29T12:05:39;94555.75;;;17.70;63.84
10014;BME280;45684;48.358;10.746;2024-03-29T12:08:02;94558.31;;;17.99;64.13
10014;BME280;45684;48.358;10.746;2024-03-29T12:11:05;94546.81;;;17.73;63.70
10014;BME280;45684;48.358;10.746;2024-03-29T12:13:55;94541.53;;;17.38;65.98
10014;BME280;45684;48.358;10.746;2024-03-29T12:16:42;94529.50;;;17.28;66.64
10014;BME280;45684;48.358;10.746;2024-03-29T12:23:05;94523.94;;;17.98;60.62
10014;BME280;45684;48.358;10.746;2024-03-29T12:26:22;94523.22;;;18.31;59.17
10014;BME280;45684;48.358;10.746;2024-03-29T12:29:30;94519.66;;;18.38;60.43
10014;BME280;45684;48.358;10.746;2024-03-29T12:32:35;94519.81;;;18.58;57.94
10014;BME280;45684;48.358;10.746;2024-03-29T12:35:15;94508.00;;;18.65;59.05
10014;BME280;45684;48.358;10.746;2024-03-29T12:38:35;94507.31;;;18.60;60.28
10014;BME280;45684;48.358;10.746;2024-03-29T12:48:35;94493.59;;;18.95;58.34
10014;BME280;45684;48.358;10.746;2024-03-29T12:52:08;94493.50;;;19.02;58.57
10014;BME280;45684;48.358;10.746;2024-03-29T12:55:15;94484.16;;;19.53;55.80
10014;BME280;45684;48.358;10.746;2024-03-29T12:58:44;94483.75;;;20.05;55.42
10014;BME280;45684;48.358;10.746;2024-03-29T13:01:40;94488.50;;;20.45;53.71
10014;BME280;45684;48.358;10.746;2024-03-29T13:04:32;94489.94;;;20.73;53.40
10014;BME280;45684;48.358;10.746;2024-03-29T13:07:21;94480.00;;;20.79;52.37
10014;BME280;45684;48.358;10.746;2024-03-29T13:10:08;94474.16;;;20.97;50.60
10014;BME280;45684;48.358;10.746;2024-03-29T13:12:55;94469.09;;;20.95;51.82
10014;BME280;45684;48.358;10.746;2024-03-29T13:16:23;94476.50;;;21.34;49.50
10014;BME280;45684;48.358;10.746;2024-03-29T13:21:42;94479.31;;;20.55;50.83
10014;BME280;45684;48.358;10.746;2024-03-29T13:23:13;94468.34;;;19.65;54.76
10014;BME280;45684;48.358;10.746;2024-03-29T13:25:54;94468.63;;;19.43;56.28
10014;BME280;45684;48.358;10.746;2024-03-29T13:36:07;94463.63;;;20.32;53.97
10014;BME280;45684;48.358;10.746;2024-03-29T13:45:05;94462.50;;;20.53;53.27
10014;BME280;45684;48.358;10.746;2024-03-29T13:46:03;94460.69;;;19.99;54.25
10014;BME280;45684;48.358;10.746;2024-03-29T13:49:06;94458.25;;;19.81;55.11
10014;BME280;45684;48.358;10.746;2024-03-29T13:52:04;94453.38;;;19.69;57.44
10014;BME280;45684;48.358;10.746;2024-03-29T13:55:04;94460.16;;;19.84;55.28
10014;BME280;45684;48.358;10.746;2024-03-29T13:58:09;94460.97;;;20.05;58.46
10014;BME280;45684;48.358;10.746;2024-03-29T14:01:09;94467.25;;;20.29;56.42
10014;BME280;45684;48.358;10.746;2024-03-29T14:09:24;94464.81;;;20.54;57.35
10014;BME280;45684;48.358;10.746;2024-03-29T14:12:24;94457.09;;;20.46;51.96
10014;BME280;45684;48.358;10.746;2024-03-29T14:14:13;94465.94;;;20.57;54.62
10014;BME280;45684;48.358;10.746;2024-03-29T14:24:03;94453.13;;;20.50;55.25
10014;BME280;45684;48.358;10.746;2024-03-29T14:27:16;94453.66;;;20.42;56.58
10014;BME280;45684;48.358;10.746;2024-03-29T14:34:29;94446.94;;;20.66;51.20
10014;BME280;45684;48.358;10.746;2024-03-29T14:37:21;94440.25;;;20.67;52.31
10014;BME280;45684;48.358;10.746;2024-03-29T14:40:19;94437.34;;;20.54;53.97
10014;BME280;45684;48.358;10.746;2024-03-29T14:43:24;94437.88;;;20.46;55.25
10014;BME280;45684;48.358;10.746;2024-03-29T14:46:08;94445.91;;;20.36;55.31
10014;BME280;45684;48.358;10.746;2024-03-29T14:48:49;94449.13;;;20.31;55.25
10014;BME280;45684;48.358;10.746;2024-03-29T14:51:49;94452.81;;;20.45;56.63
10014;BME280;45684;48.358;10.746;2024-03-29T14:54:41;94443.59;;;20.55;54.46
10014;BME280;45684;48.358;10.746;2024-03-29T15:14:01;94445.53;;;20.58;57.32
10014;BME280;45684;48.358;10.746;2024-03-29T15:17:10;94448.19;;;20.61;55.44
10014;BME280;45684;48.358;10.746;2024-03-29T15:19:58;94463.00;;;20.48;58.09
10014;BME280;45684;48.358;10.746;2024-03-29T15:23:38;94463.97;;;20.14;58.05
10014;BME280;45684;48.358;10.746;2024-03-29T15:26:55;94465.47;;;19.95;58.86
10014;BME280;45684;48.358;10.746;2024-03-29T15:29:57;94475.91;;;19.80;61.05
10014;BME280;45684;48.358;10.746;2024-03-29T15:32:46;94461.25;;;19.67;60.58
10014;BME280;45684;48.358;10.746;2024-03-29T15:35:48;94465.66;;;19.61;63.04
10014;BME280;45684;48.358;10.746;2024-03-29T15:38:36;94471.53;;;19.59;62.67
10014;BME280;45684;48.358;10.746;2024-03-29T15:41:29;94465.66;;;19.61;62.46
10014;BME280;45684;48.358;10.746;2024-03-29T15:44:18;94457.66;;;19.43;66.45
10014;BME280;45684;48.358;10.746;2024-03-29T15:50:30;94468.19;;;19.21;70.82
10014;BME280;45684;48.358;10.746;2024-03-29T15:53:43;94464.41;;;19.11;70.31
10014;BME280;45684;48.358;10.746;2024-03-29T15:56:40;94453.56;;;19.04;70.38
10014;BME280;45684;48.358;10.746;2024-03-29T15:59:28;94452.19;;;18.89;74.18
10014;BME280;45684;48.358;10.746;2024-03-29T16:02:22;94450.00;;;18.77;74.51
10014;BME280;45684;48.358;10.746;2024-03-29T16:05:15;94443.25;;;18.51;85.83
10014;BME280;45684;48.358;10.746;2024-03-29T16:17:57;94455.91;;;18.00;79.98
10014;BME280;45684;48.358;10.746;2024-03-29T16:21:08;94462.97;;;18.01;80.42
10014;BME280;45684;48.358;10.746;2024-03-29T16:24:15;94461.47;;;17.93;81.77
10014;BME280;45684;48.358;10.746;2024-03-29T16:27:04;94469.81;;;17.78;86.94
10014;BME280;45684;48.358;10.746;2024-03-29T16:30:13;94476.19;;;17.57;93.59
10014;BME280;45684;48.358;10.746;2024-03-29T16:33:04;94470.06;;;17.43;93.82
10014;BME280;45684;48.358;10.746;2024-03-29T16:36:18;94472.56;;;17.19;98.83
10014;BME280;45684;48.358;10.746;2024-03-29T16:39:02;94467.53;;;17.11;99.28
10014;BME280;45684;48.358;10.746;2024-03-29T16:41:49;94466.44;;;17.01;100.00
10014;BME280;45684;48.358;10.746;2024-03-29T16:44:30;94471.19;;;16.90;100.00
10014;BME280;45684;48.358;10.746;2024-03-29T16:47:32;94460.34;;;16.75;100.00
10014;BME280;45684;48.358;10.746;2024-03-29T16:50:27;94458.06;;;16.56;100.00
10014;BME280;45684;48.358;10.746;2024-03-29T16:53:04;94456.53;;;16.48;100.00
10014;BME280;45684;48.358;10.746;2024-03-29T16:55:39;94453.06;;;16.37;100.00
10014;BME280;45684;48.358;10.746;2024-03-29T16:58:26;94463.66;;;16.20;100.00
10014;BME280;45684;48.358;10.746;2024-03-29T17:01:05;94457.47;;;16.02;100.00
10014;BME280;45684;48.358;10.746;2024-03-29T17:03:49;94458.25;;;15.92;100.00
10014;BME280;45684;48.358;10.746;2024-03-29T17:06:33;94448.53;;;15.87;100.00
10014;BME280;45684;48.358;10.746;2024-03-29T17:09:43;94446.22;;;15.64;100.00
10014;BME280;45684;48.358;10.746;2024-03-29T17:12:20;94455.16;;;15.50;100.00
10014;BME280;45684;48.358;10.746;2024-03-29T17:14:54;94455.94;;;15.40;100.00
10014;BME280;45684;48.358;10.746;2024-03-29T17:17:44;94448.91;;;15.28;100.00
10014;BME280;45684;48.358;10.746;2024-03-29T17:20:53;94459.41;;;15.12;100.00
10014;BME280;45684;48.358;10.746;2024-03-29T17:23:46;94460.56;;;14.97;100.00
10014;BME280;45684;48.358;10.746;2024-03-29T17:26:30;94450.38;;;14.72;100.00
10014;BME280;45684;48.358;10.746;2024-03-29T17:29:17;94451.13;;;14.59;100.00
10014;BME280;45684;48.358;10.746;2024-03-29T17:32:18;94455.69;;;14.37;100.00
10014;BME280;45684;48.358;10.746;2024-03-29T17:35:13;94452.13;;;14.22;100.00
10014;BME280;45684;48.358;10.746;2024-03-29T17:37:45;94453.25;;;14.10;100.00
10014;BME280;45684;48.358;10.746;2024-03-29T17:40:28;94459.41;;;14.00;100.00
10014;BME280;45684;48.358;10.746;2024-03-29T17:42:57;94459.28;;;13.82;100.00
10014;BME280;45684;48.358;10.746;2024-03-29T17:45:45;94456.06;;;13.66;100.00
10014;BME280;45684;48.358;10.746;2024-03-29T17:48:28;94466.44;;;13.49;100.00
10014;BME280;45684;48.358;10.746;2024-03-29T17:51:40;94459.34;;;13.38;100.00
10014;BME280;45684;48.358;10.746;2024-03-29T17:54:37;94475.03;;;13.14;100.00
10014;BME280;45684;48.358;10.746;2024-03-29T17:57:21;94469.50;;;13.03;100.00
10014;BME280;45684;48.358;10.746;2024-03-29T18:00:01;94479.44;;;12.89;100.00
10014;BME280;45684;48.358;10.746;2024-03-29T18:02:47;94475.75;;;12.70;100.00
10014;BME280;45684;48.358;10.746;2024-03-29T18:05:41;94480.66;;;12.58;100.00
10014;BME280;45684;48.358;10.746;2024-03-29T18:08:40;94484.41;;;12.46;100.00
10014;BME280;45684;48.358;10.746;2024-03-29T18:11:09;94488.13;;;12.34;100.00
10014;BME280;45684;48.358;10.746;2024-03-29T18:13:53;94477.56;;;12.25;100.00
10014;BME280;45684;48.358;10.746;2024-03-29T18:16:42;94489.78;;;12.12;100.00
10014;BME280;45684;48.358;10.746;2024-03-29T18:19:25;94488.47;;;11.99;100.00
10014;BME280;45684;48.358;10.746;2024-03-29T18:22:00;94489.91;;;11.93;100.00
10014;BME280;45684;48.358;10.746;2024-03-29T18:24:34;94483.72;;;11.92;100.00
10014;BME280;45684;48.358;10.746;2024-03-29T18:27:17;94478.50;;;11.80;100.00
10014;BME280;45684;48.358;10.746;2024-03-29T18:30:06;94487.34;;;11.77;100.00
10014;BME280;45684;48.358;10.746;2024-03-29T18:32:57;94489.13;;;11.66;100.00
10014;BME280;45684;48.358;10.746;2024-03-29T18:35:53;94491.00;;;11.62;100.00
10014;BME280;45684;48.358;10.746;2024-03-29T18:38:31;94493.09;;;11.49;100.00
10014;BME280;45684;48.358;10.746;2024-03-29T18:41:23;94492.31;;;11.48;100.00
10014;BME280;45684;48.358;10.746;2024-03-29T18:44:05;94501.94;;;11.46;100.00
10014;BME280;45684;48.358;10.746;2024-03-29T18:46:58;94501.38;;;11.33;100.00
10014;BME280;45684;48.358;10.746;2024-03-29T18:49:28;94501.59;;;11.24;100.00
10014;BME280;45684;48.358;10.746;2024-03-29T18:52:10;94488.31;;;11.16;100.00
10014;BME280;45684;48.358;10.746;2024-03-29T18:55:01;94495.19;;;11.10;100.00
10014;BME280;45684;48.358;10.746;2024-03-29T18:57:57;94491.97;;;11.04;100.00
10014;BME280;45684;48.358;10.746;2024-03-29T19:00:36;94495.81;;;11.03;100.00
10014;BME280;45684;48.358;10.746;2024-03-29T19:03:35;94503.53;;;11.01;100.00
10014;BME280;45684;48.358;10.746;2024-03-29T19:06:41;94512.22;;;10.91;100.00
10014;BME280;45684;48.358;10.746;2024-03-29T19:09:42;94511.31;;;10.83;100.00
10014;BME280;45684;48.358;10.746;2024-03-29T19:13:03;94509.53;;;10.71;100.00
10014;BME280;45684;48.358;10.746;2024-03-29T19:16:49;94507.91;;;10.67;100.00
10014;BME280;45684;48.358;10.746;2024-03-29T19:19:45;94512.81;;;10.61;100.00
10014;BME280;45684;48.358;10.746;2024-03-29T19:22:41;94521.88;;;10.50;100.00
10014;BME280;45684;48.358;10.746;2024-03-29T19:25:53;94508.28;;;10.46;100.00
10014;BME280;45684;48.358;10.746;2024-03-29T19:29:19;94519.81;;;10.43;100.00
10014;BME280;45684;48.358;10.746;2024-03-29T19:32:19;94516.59;;;10.37;100.00
10014;BME280;45684;48.358;10.746;2024-03-29T19:35:29;94522.72;;;10.34;100.00
10014;BME280;45684;48.358;10.746;2024-03-29T19:38:22;94525.00;;;10.32;100.00
10014;BME280;45684;48.358;10.746;2024-03-29T19:41:06;94524.63;;;10.34;100.00
10014;BME280;45684;48.358;10.746;2024-03-29T19:44:17;94524.13;;;10.28;100.00
10014;BME280;45684;48.358;10.746;2024-03-29T19:47:07;94516.19;;;10.19;100.00
10014;BME280;45684;48.358;10.746;2024-03-29T19:50:28;94527.56;;;10.09;100.00
10014;BME280;45684;48.358;10.746;2024-03-29T19:53:24;94522.59;;;10.11;100.00
10014;BME280;45684;48.358;10.746;2024-03-29T19:55:57;94526.00;;;10.08;100.00
10014;BME280;45684;48.358;10.746;2024-03-29T19:59:14;94532.19;;;10.09;100.00
10014;BME280;45684;48.358;10.746;2024-03-29T20:01:53;94531.69;;;10.03;100.00
10014;BME280;45684;48.358;10.746;2024-03-29T20:05:09;94530.91;;;10.03;100.00
10014;BME280;45684;48.358;10.746;2024-03-29T20:11:14;94527.25;;;9.95;100.00
10014;BME280;45684;48.358;10.746;2024-03-29T20:14:32;94531.97;;;9.98;100.00
10014;BME280;45684;48.358;10.746;2024-03-29T20:17:48;94527.69;;;9.97;100.00
10014;BME280;45684;48.358;10.746;2024-03-29T20:20:49;94536.50;;;9.94;100.00
10014;BME280;45684;48.358;10.746;2024-03-29T20:27:04;94536.34;;;9.87;100.00
10014;BME280;45684;48.358;10.746;2024-03-29T20:30:34;94535.91;;;9.85;100.00
10014;BME280;45684;48.358;10.746;2024-03-29T20:33:41;94538.53;;;9.81;100.00
10014;BME280;45684;48.358;10.746;2024-03-29T20:36:47;94543.84;;;9.78;100.00
10014;BME280;45684;48.358;10.746;2024-03-29T20:39:50;94548.44;;;9.77;100.00
10014;BME280;45684;48.358;10.746;2024-03-29T20:43:04;94542.97;;;9.74;100.00
10014;BME280;45684;48.358;10.746;2024-03-29T20:46:28;94550.66;;;9.71;100.00
10014;BME280;45684;48.358;10.746;2024-03-29T20:49:38;94545.84;;;9.65;100.00
10014;BME280;45684;48.358;10.746;2024-03-29T20:52:56;94545.78;;;9.61;100.00
10014;BME280;45684;48.358;10.746;2024-03-29T20:55:48;94557.25;;;9.58;100.00
10014;BME280;45684;48.358;10.746;2024-03-29T20:58:51;94551.25;;;9.49;100.00
10014;BME280;45684;48.358;10.746;2024-03-29T21:02:13;94558.84;;;9.43;100.00
10014;BME280;45684;48.358;10.746;2024-03-29T21:05:03;94558.16;;;9.47;100.00
10014;BME280;45684;48.358;10.746;2024-03-29T21:07:51;94561.44;;;9.40;100.00
10014;BME280;45684;48.358;10.746;2024-03-29T21:10:42;94569.13;;;9.38;100.00
10014;BME280;45684;48.358;10.746;2024-03-29T21:13:35;94577.88;;;9.35;100.00
10014;BME280;45684;48.358;10.746;2024-03-29T21:16:45;94575.19;;;9.35;100.00
10014;BME280;45684;48.358;10.746;2024-03-29T21:19:48;94577.47;;;9.33;100.00
10014;BME280;45684;48.358;10.746;2024-03-29T21:23:31;94577.38;;;9.29;100.00
10014;BME280;45684;48.358;10.746;2024-03-29T21:26:37;94576.31;;;9.34;100.00
10014;BME280;45684;48.358;10.746;2024-03-29T21:30:02;94574.41;;;9.34;100.00
10014;BME280;45684;48.358;10.746;2024-03-29T21:35:55;94574.56;;;9.41;100.00
10014;BME280;45684;48.358;10.746;2024-03-29T21:42:21;94575.44;;;9.45;100.00
10014;BME280;45684;48.358;10.746;2024-03-29T21:46:11;94583.13;;;9.43;100.00
10014;BME280;45684;48.358;10.746;2024-03-29T21:49:32;94579.72;;;9.31;100.00
10014;BME280;45684;48.358;10.746;2024-03-29T21:55:02;94577.06;;;9.18;100.00
10014;BME280;45684;48.358;10.746;2024-03-29T21:58:06;94580.91;;;9.17;100.00
10014;BME280;45684;48.358;10.746;2024-03-29T22:00:58;94596.31;;;9.17;100.00
10014;BME280;45684;48.358;10.746;2024-03-29T22:03:56;94596.31;;;9.17;100.00
10014;BME280;45684;48.358;10.746;2024-03-29T22:07:13;94589.47;;;9.19;100.00
10014;BME280;45684;48.358;10.746;2024-03-29T22:10:27;94594.50;;;9.21;100.00
10014;BME280;45684;48.358;10.746;2024-03-29T22:13:46;94601.59;;;9.13;100.00
10014;BME280;45684;48.358;10.746;2024-03-29T22:17:11;94602.75;;;9.12;100.00
10014;BME280;45684;48.358;10.746;2024-03-29T22:20:18;94597.50;;;9.04;100.00
10014;BME280;45684;48.358;10.746;2024-03-29T22:23:23;94605.25;;;9.05;100.00
10014;BME280;45684;48.358;10.746;2024-03-29T22:26:26;94598.28;;;9.04;100.00
10014;BME280;45684;48.358;10.746;2024-03-29T22:29:33;94592.72;;;8.97;100.00
10014;BME280;45684;48.358;10.746;2024-03-29T22:32:40;94596.44;;;8.92;100.00
10014;BME280;45684;48.358;10.746;2024-03-29T22:35:36;94597.13;;;8.89;100.00
10014;BME280;45684;48.358;10.746;2024-03-29T22:39:10;94599.81;;;8.89;100.00
10014;BME280;45684;48.358;10.746;2024-03-29T22:42:07;94603.75;;;8.92;100.00
10014;BME280;45684;48.358;10.746;2024-03-29T22:45:19;94606.09;;;8.93;100.00
10014;BME280;45684;48.358;10.746;2024-03-29T22:48:03;94610.34;;;8.94;100.00
10014;BME280;45684;48.358;10.746;2024-03-29T22:51:07;94608.88;;;8.97;100.00
10014;BME280;45684;48.358;10.746;2024-03-29T22:54:25;94610.03;;;8.96;100.00
10014;BME280;45684;48.358;10.746;2024-03-29T23:00:20;94616.09;;;8.93;100.00
10014;BME280;45684;48.358;10.746;2024-03-29T23:03:04;94618.78;;;8.93;100.00
10014;BME280;45684;48.358;10.746;2024-03-29T23:06:10;94618.88;;;8.97;100.00
10014;BME280;45684;48.358;10.746;2024-03-29T23:09:20;94615.72;;;8.94;100.00
10014;BME280;45684;48.358;10.746;2024-03-29T23:12:26;94612.63;;;8.92;100.00
